CEJ3 weather

Stettler Airport
Stettler, Alberta, Canada

Public forecast

Using degrees Celsius for public forecast. Weather courtesy of forecast.io.

METAR (pilot weather report)

Closest report is Red Deer Regional Airport, 42.6 nm (78.9 km) W. Retrieved 2019/07/22 06:00 UTC (43 minutes ago):

CYQF 220600Z 18007KT 15SM SKC 14/10 A3013 RMK SLP209 DENSITY ALT 3300FT

TAF (pilot weather forecast)

Closest forecast is Red Deer Regional Airport, 42.6 nm (78.9 km) W. Retrieved 2019/07/22 06:42 UTC (48 seconds ago):

TAF CYQF 220540Z 2206/2218 17007KT P6SM SKC BECMG 2215/2217 17012KT RMK NXT FCST BY 221200Z